Time;durP1;ratioP1;P1;durP2;ratioP2;P2;SDS_P1;SDS_P2;PMS_P1;PMS_P2;Temp;Humidity;BMP_temperature;BMP_pressure;BME280_temperature;BME280_humidity;BME280_pressure;Samples;Min_cycle;Max_cycle;Signal;HPM_P1;HPM_P2
2023/09/20 00:00:42;;;;;;;1.92;0.17;;;;;;;18.55;100.00;99635.34;5018337;28;20047;-57
2023/09/20 00:03:08;;;;;;;6.75;1.42;;;;;;;18.56;100.00;99623.50;5020322;28;20049;-62
2023/09/20 00:05:33;;;;;;;2.67;0.20;;;;;;;18.58;100.00;99629.44;5023850;28;20512;-54
2023/09/20 00:08:02;;;;;;;6.57;1.20;;;;;;;18.74;100.00;99615.78;5026403;28;20025;-54
2023/09/20 00:10:27;;;;;;;3.20;0.60;;;;;;;18.76;100.00;99620.91;5023290;28;20396;-57
2023/09/20 00:12:53;;;;;;;11.95;1.15;;;;;;;18.80;100.00;99615.81;5023135;28;20055;-53
2023/09/20 00:15:18;;;;;;;5.60;0.68;;;;;;;18.78;100.00;99605.34;5015243;28;20048;-54
2023/09/20 00:17:44;;;;;;;3.58;0.60;;;;;;;18.67;100.00;99617.13;5018980;28;20041;-63
2023/09/20 00:20:12;;;;;;;4.57;0.47;;;;;;;18.72;100.00;99614.44;5021402;28;20030;-62
2023/09/20 00:22:42;;;;;;;4.68;0.82;;;;;;;18.63;100.00;99603.41;5018330;28;20032;-56
2023/09/20 00:25:12;;;;;;;3.22;1.33;;;;;;;18.69;100.00;99610.41;5018023;28;20492;-58
2023/09/20 00:27:40;;;;;;;4.85;0.43;;;;;;;18.70;100.00;99601.28;5026107;28;20034;-56
2023/09/20 00:30:17;;;;;;;12.35;1.23;;;;;;;18.62;100.00;99603.69;5022913;28;20543;-51
2023/09/20 00:32:43;;;;;;;3.55;0.38;;;;;;;18.78;100.00;99599.16;5021506;28;20021;-58
2023/09/20 00:35:10;;;;;;;2.95;0.30;;;;;;;18.86;100.00;99595.94;5014930;28;20482;-56
2023/09/20 00:37:46;;;;;;;7.25;1.67;;;;;;;18.85;100.00;99597.84;5019527;28;20041;-63
2023/09/20 00:40:15;;;;;;;3.25;0.40;;;;;;;18.74;100.00;99607.72;5019873;28;20529;-59
2023/09/20 00:42:46;;;;;;;5.43;0.60;;;;;;;18.65;100.00;99600.47;5019378;28;20044;-54
2023/09/20 00:45:15;;;;;;;3.63;0.40;;;;;;;18.68;100.00;99605.28;5019983;28;20040;-56
2023/09/20 00:47:47;;;;;;;4.28;0.63;;;;;;;18.69;100.00;99598.84;5015190;28;20121;-56
2023/09/20 00:50:14;;;;;;;1.85;0.75;;;;;;;18.75;100.00;99587.09;5017449;28;20030;-58
2023/09/20 00:52:41;;;;;;;6.68;1.20;;;;;;;18.80;100.00;99588.97;5023620;28;20409;-56
2023/09/20 00:55:15;;;;;;;1.88;0.38;;;;;;;18.81;100.00;99574.47;5018573;28;20107;-53
2023/09/20 00:57:42;;;;;;;1.98;0.40;;;;;;;18.83;100.00;99585.75;5017533;28;20033;-59
2023/09/20 01:00:13;;;;;;;1.63;0.28;;;;;;;18.66;100.00;99578.69;5022119;28;20148;-54
2023/09/20 01:02:39;;;;;;;1.70;0.57;;;;;;;18.76;100.00;99577.94;5013521;28;20199;-51
2023/09/20 01:05:05;;;;;;;4.28;1.55;;;;;;;18.59;100.00;99582.75;5022950;28;20360;-60
2023/09/20 01:07:30;;;;;;;2.33;0.38;;;;;;;18.50;100.00;99574.38;5024518;28;20040;-55
2023/09/20 01:09:56;;;;;;;3.13;0.77;;;;;;;18.58;100.00;99578.41;5023797;28;20040;-53
2023/09/20 01:12:22;;;;;;;7.80;1.58;;;;;;;18.60;100.00;99581.66;5024110;28;20110;-56
2023/09/20 01:14:47;;;;;;;7.25;0.80;;;;;;;18.66;100.00;99575.22;5017449;28;20172;-58
2023/09/20 01:17:14;;;;;;;3.83;0.70;;;;;;;18.62;100.00;99583.00;5016579;28;20087;-57
2023/09/20 01:19:40;;;;;;;6.00;0.52;;;;;;;18.56;100.00;99572.50;5018481;28;20502;-60
2023/09/20 01:22:05;;;;;;;0.93;0.38;;;;;;;18.63;100.00;99581.13;5019060;28;20029;-60
2023/09/20 01:24:33;;;;;;;5.57;1.42;;;;;;;18.37;100.00;99572.22;5017581;28;20082;-58
2023/09/20 01:27:03;;;;;;;2.75;0.68;;;;;;;18.58;100.00;99571.16;5024648;28;20116;-57
2023/09/20 01:29:29;;;;;;;3.03;0.52;;;;;;;18.78;100.00;99565.06;5021795;28;20040;-56
2023/09/20 01:32:00;;;;;;;7.95;1.77;;;;;;;18.68;100.00;99565.81;5029291;28;20029;-53
2023/09/20 01:34:25;;;;;;;1.67;0.52;;;;;;;18.78;100.00;99548.16;5019491;28;20040;-53
2023/09/20 01:36:51;;;;;;;3.50;0.73;;;;;;;18.77;100.00;99546.53;5018842;28;20033;-55
2023/09/20 01:39:16;;;;;;;8.25;0.25;;;;;;;18.77;100.00;99530.41;5020009;28;20048;-53
2023/09/20 01:41:43;;;;;;;1.00;0.10;;;;;;;18.84;100.00;99547.88;5022875;28;20034;-57
2023/09/20 01:44:10;;;;;;;3.30;0.73;;;;;;;18.76;100.00;99536.88;5016092;28;20034;-59
2023/09/20 01:46:36;;;;;;;3.22;0.30;;;;;;;18.70;100.00;99544.09;5022197;28;20068;-56
2023/09/20 01:49:05;;;;;;;2.17;0.30;;;;;;;18.57;100.00;99550.78;5025195;28;20037;-56
2023/09/20 01:51:30;;;;;;;3.22;1.45;;;;;;;18.43;100.00;99545.13;5023128;28;20123;-60
2023/09/20 01:53:56;;;;;;;5.47;0.30;;;;;;;18.59;100.00;99537.09;5021975;28;20126;-56
2023/09/20 01:56:22;;;;;;;2.45;0.20;;;;;;;18.62;100.00;99528.50;5023363;28;20033;-56
2023/09/20 01:58:49;;;;;;;1.48;0.88;;;;;;;18.52;100.00;99526.63;5031206;28;20111;-56
2023/09/20 02:01:17;;;;;;;2.13;0.40;;;;;;;18.49;100.00;99525.25;5025945;28;20448;-55
2023/09/20 02:03:42;;;;;;;3.50;0.82;;;;;;;18.53;100.00;99504.88;5019439;28;20390;-55
2023/09/20 02:06:08;;;;;;;8.45;0.73;;;;;;;18.68;100.00;99492.53;5024936;28;20573;-53
2023/09/20 02:08:34;;;;;;;4.35;0.68;;;;;;;18.72;100.00;99490.94;5013914;28;20032;-55
2023/09/20 02:10:59;;;;;;;3.70;0.45;;;;;;;18.63;100.00;99487.97;5026910;28;20025;-59
2023/09/20 02:13:24;;;;;;;2.97;1.23;;;;;;;18.66;100.00;99486.63;5021416;28;20037;-57
2023/09/20 02:15:51;;;;;;;9.73;1.85;;;;;;;18.73;100.00;99489.84;5022887;28;20049;-58
2023/09/20 02:18:17;;;;;;;5.47;0.93;;;;;;;19.02;100.00;99489.31;5022481;28;20123;-57
2023/09/20 02:20:42;;;;;;;6.38;1.17;;;;;;;18.93;100.00;99486.38;5022968;28;20399;-53
2023/09/20 02:23:12;;;;;;;2.88;0.52;;;;;;;18.81;100.00;99489.31;5021417;28;20034;-56
2023/09/20 02:25:38;;;;;;;2.88;0.75;;;;;;;18.80;100.00;99486.94;5014003;28;20455;-62
2023/09/20 02:28:04;;;;;;;2.92;0.85;;;;;;;18.80;100.00;99492.31;5023497;28;20045;-52
2023/09/20 02:30:35;;;;;;;4.60;0.95;;;;;;;18.66;100.00;99483.94;5028968;28;20072;-55
2023/09/20 02:33:04;;;;;;;8.60;1.13;;;;;;;18.69;100.00;99470.78;5020340;28;20061;-57
2023/09/20 02:35:30;;;;;;;3.13;0.80;;;;;;;18.77;100.00;99464.09;5029323;28;20207;-53
2023/09/20 02:37:58;;;;;;;3.63;1.05;;;;;;;18.76;100.00;99465.16;5019988;28;20025;-52
2023/09/20 02:40:24;;;;;;;5.38;1.08;;;;;;;18.56;100.00;99455.22;5022058;28;20029;-60
2023/09/20 02:42:52;;;;;;;9.65;2.28;;;;;;;18.66;100.00;99459.75;5022841;28;20033;-57
2023/09/20 02:45:22;;;;;;;8.57;1.58;;;;;;;18.64;100.00;99454.69;5022619;28;20037;-58
2023/09/20 02:47:48;;;;;;;6.50;1.90;;;;;;;18.71;100.00;99446.34;5015627;28;20375;-60
2023/09/20 02:50:18;;;;;;;4.47;1.48;;;;;;;18.64;100.00;99441.25;5023136;28;20030;-62
2023/09/20 02:52:48;;;;;;;9.13;2.58;;;;;;;18.65;100.00;99431.31;5017493;28;20026;-58
2023/09/20 02:55:17;;;;;;;3.90;1.80;;;;;;;18.76;100.00;99424.09;5023990;28;20033;-63
2023/09/20 02:57:49;;;;;;;4.88;2.25;;;;;;;18.84;100.00;99410.91;5021508;28;20033;-62
2023/09/20 03:00:21;;;;;;;9.43;1.88;;;;;;;18.56;100.00;99412.28;5026147;28;20522;-61
2023/09/20 03:02:52;;;;;;;8.35;3.22;;;;;;;18.52;100.00;99406.63;5025493;28;20045;-56
2023/09/20 03:05:25;;;;;;;9.43;2.28;;;;;;;18.67;100.00;99391.59;5024739;28;20638;-58
2023/09/20 03:07:51;;;;;;;16.67;3.67;;;;;;;18.58;100.00;99393.19;5023126;28;20060;-56
2023/09/20 03:10:21;;;;;;;12.38;3.15;;;;;;;18.56;100.00;99396.19;5020932;28;20123;-60
2023/09/20 03:12:47;;;;;;;18.85;2.75;;;;;;;18.65;100.00;99399.09;5020778;28;20029;-62
2023/09/20 03:15:17;;;;;;;7.65;3.00;;;;;;;18.45;100.00;99410.66;5020181;28;20397;-52
2023/09/20 03:17:47;;;;;;;18.17;3.17;;;;;;;18.62;100.00;99405.03;5018629;28;20336;-59
2023/09/20 03:20:22;;;;;;;8.77;2.03;;;;;;;18.62;100.00;99396.97;5020859;28;20033;-56
2023/09/20 03:22:48;;;;;;;10.23;2.17;;;;;;;18.88;100.00;99397.75;5019848;28;20041;-58
2023/09/20 03:25:14;;;;;;;12.68;2.58;;;;;;;18.91;100.00;99379.22;5021621;28;20336;-56
2023/09/20 03:27:43;;;;;;;15.45;3.72;;;;;;;18.89;100.00;99375.19;5023126;28;20258;-54
2023/09/20 03:30:13;;;;;;;14.35;3.42;;;;;;;18.88;100.00;99377.06;5015873;28;20356;-55
2023/09/20 03:32:40;;;;;;;6.30;2.67;;;;;;;18.83;100.00;99378.97;5014151;28;20486;-54
2023/09/20 03:35:06;;;;;;;8.48;2.63;;;;;;;18.62;100.00;99372.81;5019197;28;20399;-56
2023/09/20 03:37:33;;;;;;;13.50;3.70;;;;;;;18.90;100.00;99361.50;5021371;28;20034;-64
2023/09/20 03:39:59;;;;;;;11.38;2.88;;;;;;;18.94;100.00;99351.81;5019424;28;20029;-55
2023/09/20 03:42:24;;;;;;;12.63;3.60;;;;;;;18.71;100.00;99357.75;5019166;28;20060;-59
2023/09/20 03:44:50;;;;;;;6.55;3.42;;;;;;;18.85;100.00;99345.41;5028539;28;20044;-56
2023/09/20 03:47:16;;;;;;;9.48;3.53;;;;;;;19.01;100.00;99348.84;5018121;28;20025;-57
2023/09/20 03:49:42;;;;;;;8.88;2.35;;;;;;;19.12;100.00;99353.09;5022873;28;20032;-56
2023/09/20 03:52:07;;;;;;;16.55;3.83;;;;;;;19.13;100.00;99332.41;5017056;28;20030;-54
2023/09/20 03:54:33;;;;;;;15.23;3.17;;;;;;;19.21;100.00;99336.41;5023540;28;20037;-58
2023/09/20 03:56:59;;;;;;;14.90;4.15;;;;;;;19.03;100.00;99333.25;5023071;28;20029;-59
2023/09/20 03:59:26;;;;;;;11.55;3.72;;;;;;;19.23;100.00;99320.78;5022574;28;20117;-59
2023/09/20 04:01:52;;;;;;;11.98;3.22;;;;;;;19.22;100.00;99316.50;5023249;28;20474;-56
2023/09/20 04:04:17;;;;;;;5.78;2.33;;;;;;;19.11;100.00;99297.75;5021883;28;20087;-60
2023/09/20 04:06:44;;;;;;;8.75;4.05;;;;;;;19.17;100.00;99299.31;5017253;28;20042;-56
2023/09/20 04:09:10;;;;;;;11.15;2.78;;;;;;;19.28;100.00;99293.91;5018493;28;20040;-53
2023/09/20 04:11:40;;;;;;;13.55;2.78;;;;;;;19.20;100.00;99292.59;5018031;28;20056;-62
2023/09/20 04:14:07;;;;;;;9.98;4.50;;;;;;;19.23;100.00;99283.19;5020601;28;20029;-59
2023/09/20 04:16:35;;;;;;;13.05;3.33;;;;;;;19.08;100.00;99284.88;5021828;28;20033;-57
2023/09/20 04:19:01;;;;;;;8.70;3.10;;;;;;;19.17;100.00;99264.41;5024032;28;20025;-58
2023/09/20 04:21:26;;;;;;;14.88;3.55;;;;;;;19.20;100.00;99276.47;5027298;28;20506;-55
2023/09/20 04:23:51;;;;;;;10.45;4.30;;;;;;;19.28;100.00;99269.72;5019155;28;20107;-57
2023/09/20 04:26:17;;;;;;;12.88;2.95;;;;;;;19.28;100.00;99262.44;5020884;28;20041;-57
2023/09/20 04:28:42;;;;;;;9.20;3.90;;;;;;;19.21;100.00;99277.31;5020371;28;20040;-59
2023/09/20 04:31:08;;;;;;;8.35;3.35;;;;;;;19.24;100.00;99272.16;5027040;28;20037;-56
2023/09/20 04:33:35;;;;;;;13.38;4.45;;;;;;;19.16;100.00;99264.69;5015786;28;20436;-57
2023/09/20 04:36:04;;;;;;;16.23;3.55;;;;;;;19.09;100.00;99256.13;5023436;28;20045;-61
2023/09/20 04:38:29;;;;;;;13.98;3.90;;;;;;;19.16;100.00;99248.56;5019284;28;20032;-60
2023/09/20 04:40:56;;;;;;;17.85;5.40;;;;;;;19.15;100.00;99244.25;5019066;28;20060;-58
2023/09/20 04:43:21;;;;;;;16.05;3.25;;;;;;;19.13;100.00;99243.75;5021792;28;20025;-57
2023/09/20 04:45:47;;;;;;;9.70;3.65;;;;;;;19.07;100.00;99239.47;5021556;28;20371;-54
2023/09/20 04:48:13;;;;;;;14.70;4.68;;;;;;;19.13;100.00;99257.19;5017108;28;20041;-63
2023/09/20 04:50:38;;;;;;;11.65;3.63;;;;;;;19.15;100.00;99255.84;5025614;28;20056;-60
2023/09/20 04:53:04;;;;;;;10.27;3.88;;;;;;;19.15;100.00;99238.88;5016400;28;20127;-59
2023/09/20 04:55:29;;;;;;;16.05;3.85;;;;;;;19.01;100.00;99241.38;5019369;28;20109;-62
2023/09/20 04:57:55;;;;;;;14.10;5.45;;;;;;;19.02;100.00;99232.25;5017726;28;20159;-55
2023/09/20 05:00:26;;;;;;;14.00;3.55;;;;;;;19.20;100.00;99230.81;5023124;28;20465;-57
2023/09/20 05:02:52;;;;;;;8.73;2.72;;;;;;;19.09;100.00;99240.00;5004162;28;20060;-51
2023/09/20 05:05:17;;;;;;;11.43;4.28;;;;;;;19.16;100.00;99252.06;5021365;28;20125;-59
2023/09/20 05:07:44;;;;;;;13.13;3.75;;;;;;;19.11;100.00;99245.91;5021128;28;20368;-60
2023/09/20 05:10:09;;;;;;;21.17;4.63;;;;;;;19.16;100.00;99251.25;5018949;28;20033;-58
2023/09/20 05:12:35;;;;;;;10.98;2.85;;;;;;;19.13;100.00;99247.25;5021123;28;20509;-63
2023/09/20 05:15:00;;;;;;;20.00;4.10;;;;;;;19.05;100.00;99247.00;5011800;28;20053;-56
2023/09/20 05:17:27;;;;;;;13.10;3.05;;;;;;;18.89;100.00;99240.91;5018070;28;20033;-61
2023/09/20 05:19:52;;;;;;;15.23;5.30;;;;;;;18.96;100.00;99233.34;5017870;28;20025;-63
2023/09/20 05:22:19;;;;;;;10.30;3.20;;;;;;;18.94;100.00;99230.13;5020470;28;20489;-62
2023/09/20 05:24:44;;;;;;;19.40;4.07;;;;;;;19.05;100.00;99220.13;5027395;28;20035;-59
2023/09/20 05:27:09;;;;;;;17.65;3.85;;;;;;;18.99;100.00;99232.00;5019986;28;20030;-61
2023/09/20 05:29:35;;;;;;;12.35;3.78;;;;;;;18.84;100.00;99227.50;5016901;28;20026;-57
2023/09/20 05:32:00;;;;;;;7.95;3.33;;;;;;;18.83;100.00;99223.22;5019349;28;20475;-55
2023/09/20 05:34:25;;;;;;;11.18;3.20;;;;;;;18.96;100.00;99218.03;5021171;28;20036;-54
2023/09/20 05:36:53;;;;;;;14.43;3.85;;;;;;;18.92;100.00;99216.19;5025358;28;20065;-57
2023/09/20 05:39:18;;;;;;;9.82;3.53;;;;;;;19.04;100.00;99205.13;5019687;28;20029;-55
2023/09/20 05:41:44;;;;;;;7.07;3.80;;;;;;;18.93;100.00;99215.91;5017187;28;20040;-54
2023/09/20 05:44:10;;;;;;;9.88;3.53;;;;;;;18.99;100.00;99202.47;5018203;28;20040;-56
2023/09/20 05:46:36;;;;;;;9.98;3.42;;;;;;;18.97;100.00;99202.72;5017110;28;20041;-55
2023/09/20 05:49:02;;;;;;;8.80;2.63;;;;;;;19.16;100.00;99206.38;5018738;28;20029;-57
2023/09/20 05:51:28;;;;;;;10.30;3.58;;;;;;;19.30;100.00;99198.50;5018469;28;20025;-55
2023/09/20 05:53:54;;;;;;;8.75;2.53;;;;;;;19.13;100.00;99181.97;5017188;28;20562;-56
2023/09/20 05:56:19;;;;;;;11.90;2.65;;;;;;;19.08;100.00;99180.13;5020592;28;20044;-51
2023/09/20 05:58:44;;;;;;;13.73;3.13;;;;;;;19.13;100.00;99182.78;5022588;28;20025;-57
2023/09/20 06:01:10;;;;;;;11.98;3.00;;;;;;;19.23;100.00;99168.44;5021224;28;20079;-53
2023/09/20 06:03:36;;;;;;;11.15;2.80;;;;;;;19.25;100.00;99179.72;5017218;28;20048;-53
2023/09/20 06:06:04;;;;;;;10.13;2.75;;;;;;;19.13;100.00;99179.28;5019156;28;20120;-55
2023/09/20 06:08:29;;;;;;;11.13;4.10;;;;;;;19.14;100.00;99170.13;5015239;28;20036;-50
2023/09/20 06:10:55;;;;;;;12.43;2.70;;;;;;;19.17;100.00;99174.94;5015719;28;20033;-56
2023/09/20 06:13:20;;;;;;;15.68;4.15;;;;;;;19.10;100.00;99177.97;5020179;28;20044;-51
2023/09/20 06:15:45;;;;;;;7.70;2.92;;;;;;;19.14;100.00;99170.94;5019405;28;20030;-50
2023/09/20 06:18:11;;;;;;;10.00;2.70;;;;;;;19.18;100.00;99172.00;5011426;28;20197;-58
2023/09/20 06:20:36;;;;;;;8.85;3.65;;;;;;;19.10;100.00;99163.69;5020231;28;20181;-59
2023/09/20 06:23:03;;;;;;;9.70;3.67;;;;;;;19.22;100.00;99160.69;5015902;28;20026;-58
2023/09/20 06:25:29;;;;;;;15.57;5.75;;;;;;;19.28;100.00;99163.03;5025127;28;20391;-56
2023/09/20 06:27:55;;;;;;;10.48;3.83;;;;;;;19.31;100.00;99151.75;5017327;28;20033;-57
2023/09/20 06:30:21;;;;;;;17.85;5.20;;;;;;;19.31;100.00;99153.59;5015587;28;20032;-59
2023/09/20 06:32:47;;;;;;;15.32;3.15;;;;;;;19.16;100.00;99171.47;5017042;28;20033;-63
2023/09/20 06:35:15;;;;;;;9.15;3.85;;;;;;;19.27;100.00;99191.00;5028677;28;20029;-56
2023/09/20 06:37:45;;;;;;;13.63;3.70;;;;;;;19.25;100.00;99208.47;5017690;28;20679;-60
2023/09/20 06:40:21;;;;;;;8.90;3.70;;;;;;;19.32;100.00;99209.78;5019816;28;20483;-52
2023/09/20 06:42:46;;;;;;;10.63;3.60;;;;;;;19.61;100.00;99200.94;5019678;28;20053;-63
2023/09/20 06:45:12;;;;;;;9.13;4.07;;;;;;;19.42;100.00;99225.03;5020250;28;20043;-60
2023/09/20 06:47:39;;;;;;;8.85;3.53;;;;;;;19.37;100.00;99228.53;5015409;28;20036;-60
2023/09/20 06:50:04;;;;;;;18.40;4.57;;;;;;;19.75;100.00;99201.94;5017564;28;20123;-63
2023/09/20 06:52:30;;;;;;;11.93;3.97;;;;;;;19.86;100.00;99188.41;5022533;28;20037;-64
2023/09/20 06:54:55;;;;;;;8.00;4.25;;;;;;;19.61;100.00;99191.00;5021461;28;20033;-64
2023/09/20 06:57:22;;;;;;;13.93;3.22;;;;;;;19.64;100.00;99186.94;5021914;28;20045;-61
2023/09/20 06:59:47;;;;;;;12.20;4.00;;;;;;;19.74;100.00;99184.19;5024093;28;20052;-57
2023/09/20 07:02:14;;;;;;;10.55;3.33;;;;;;;19.59;100.00;99205.78;5015636;28;20410;-49
2023/09/20 07:04:42;;;;;;;15.85;4.65;;;;;;;19.88;100.00;99195.09;5022929;28;20033;-64
2023/09/20 07:07:07;;;;;;;7.93;3.17;;;;;;;20.00;100.00;99187.44;5023246;28;20561;-65
2023/09/20 07:09:34;;;;;;;15.07;4.00;;;;;;;19.87;100.00;99190.00;5013199;28;20025;-63
2023/09/20 07:12:03;;;;;;;10.70;3.85;;;;;;;19.91;100.00;99194.53;5019214;28;20037;-58
2023/09/20 07:14:31;;;;;;;12.52;3.90;;;;;;;20.03;100.00;99188.75;5019782;28;20450;-60
2023/09/20 07:16:57;;;;;;;11.55;3.03;;;;;;;19.90;100.00;99192.13;5022246;28;20107;-62
2023/09/20 07:19:26;;;;;;;11.98;4.45;;;;;;;19.95;100.00;99194.75;5016280;28;20026;-60
2023/09/20 07:21:52;;;;;;;8.82;3.55;;;;;;;19.99;100.00;99195.81;5019640;28;20108;-62
2023/09/20 07:24:24;;;;;;;8.02;3.72;;;;;;;19.89;100.00;99194.00;5023910;28;20033;-52
2023/09/20 07:26:51;;;;;;;15.43;3.67;;;;;;;19.92;100.00;99198.03;5015015;28;20030;-61
2023/09/20 07:29:16;;;;;;;11.60;3.17;;;;;;;20.07;100.00;99207.84;5013884;28;20037;-58
2023/09/20 07:31:42;;;;;;;12.20;3.47;;;;;;;19.94;100.00;99204.72;5020563;28;20037;-62
2023/09/20 07:34:12;;;;;;;13.27;3.78;;;;;;;19.99;100.00;99188.53;5018774;28;20034;-62
2023/09/20 07:36:40;;;;;;;10.55;2.42;;;;;;;19.95;100.00;99190.16;5015788;28;20522;-62
2023/09/20 07:39:08;;;;;;;8.30;3.42;;;;;;;20.09;100.00;99197.59;5015342;28;20873;-54
2023/09/20 07:41:35;;;;;;;8.82;2.42;;;;;;;20.14;100.00;99184.88;5015214;28;20482;-61
2023/09/20 07:44:00;;;;;;;9.68;2.55;;;;;;;20.10;100.00;99191.91;5020765;28;20044;-62
2023/09/20 07:46:26;;;;;;;6.90;3.25;;;;;;;20.23;100.00;99168.91;5019919;28;20029;-59
2023/09/20 07:48:51;;;;;;;13.32;3.63;;;;;;;20.04;100.00;99182.31;5019309;28;20299;-50
2023/09/20 07:51:23;;;;;;;12.43;3.67;;;;;;;20.02;100.00;99173.72;5017949;28;20563;-50
2023/09/20 07:53:54;;;;;;;18.25;3.30;;;;;;;20.14;100.00;99182.19;5018469;28;20036;-53
2023/09/20 07:56:20;;;;;;;;;;;;;;;20.23;100.00;99156.25;5018635;28;20033;-49
2023/09/20 07:58:46;;;;;;;17.50;3.47;;;;;;;20.15;100.00;99169.53;5015002;28;20991;-64
2023/09/20 08:01:12;;;;;;;7.00;2.25;;;;;;;20.42;100.00;99156.31;5013314;28;20037;-63
2023/09/20 08:03:45;;;;;;;11.65;4.45;;;;;;;20.48;100.00;99157.03;5016469;28;20052;-63
2023/09/20 08:06:10;;;;;;;14.32;3.33;;;;;;;20.48;100.00;99152.44;5015435;28;20585;-63
2023/09/20 08:08:36;;;;;;;8.10;3.28;;;;;;;20.61;100.00;99132.13;5013990;28;20108;-64
2023/09/20 08:11:01;;;;;;;8.98;2.40;;;;;;;20.77;100.00;99137.31;5016168;28;20120;-62
2023/09/20 08:13:27;;;;;;;10.05;3.25;;;;;;;20.80;100.00;99129.44;4973155;28;20132;-64
2023/09/20 08:15:52;;;;;;;11.85;3.13;;;;;;;20.63;100.00;99135.34;5000711;28;21013;-61
2023/09/20 08:21:03;;;;;;;7.45;2.78;;;;;;;21.16;100.00;99145.06;5008809;28;20321;-63
2023/09/20 09:02:01;;;;;;;12.63;3.85;;;;;;;20.79;100.00;99111.69;5004508;28;20052;-62
2023/09/20 09:04:27;;;;;;;13.30;4.15;;;;;;;20.79;100.00;99108.19;5009516;28;20029;-53
2023/09/20 09:06:52;;;;;;;6.15;2.00;;;;;;;20.85;100.00;99109.69;5007762;28;20477;-57
2023/09/20 09:09:17;;;;;;;5.50;1.92;;;;;;;20.96;100.00;99100.41;5009395;28;20047;-61
2023/09/20 09:11:46;;;;;;;7.85;2.13;;;;;;;20.63;100.00;99116.47;5008739;28;20140;-61
2023/09/20 09:14:13;;;;;;;11.65;2.72;;;;;;;20.75;100.00;99105.25;5006740;28;20028;-60
2023/09/20 09:16:39;;;;;;;14.82;3.15;;;;;;;20.70;100.00;99102.63;5008083;28;20049;-49
2023/09/20 09:19:04;;;;;;;11.18;2.28;;;;;;;20.64;100.00;99095.75;5006638;28;20052;-58
2023/09/20 09:21:30;;;;;;;12.20;2.22;;;;;;;20.90;100.00;99090.78;5004884;28;20025;-54
2023/09/20 09:23:56;;;;;;;14.48;2.53;;;;;;;20.98;100.00;99092.00;5007477;28;20124;-62
2023/09/20 09:26:23;;;;;;;13.15;2.45;;;;;;;21.03;100.00;99090.03;5009383;28;20075;-59
2023/09/20 09:28:49;;;;;;;10.30;2.70;;;;;;;21.10;100.00;99074.28;5007985;28;20033;-59
2023/09/20 09:31:15;;;;;;;7.47;2.95;;;;;;;21.08;100.00;99065.69;5004978;28;20041;-61
2023/09/20 09:33:41;;;;;;;10.88;3.47;;;;;;;21.18;100.00;99061.25;5008911;28;20572;-61
2023/09/20 09:36:07;;;;;;;9.52;2.72;;;;;;;21.25;100.00;99061.66;5004349;28;20033;-62
2023/09/20 09:38:35;;;;;;;9.93;4.45;;;;;;;21.17;100.00;99052.34;5002795;28;20638;-55
2023/09/20 09:41:02;;;;;;;15.00;2.30;;;;;;;21.29;100.00;99052.66;5006840;28;20026;-61
2023/09/20 09:43:32;;;;;;;9.43;2.47;;;;;;;21.18;100.00;99047.75;5008412;28;20510;-63
2023/09/20 09:46:09;;;;;;;10.43;1.95;;;;;;;21.11;100.00;99038.16;5007303;28;20380;-57
2023/09/20 09:48:39;;;;;;;10.27;2.58;;;;;;;21.15;100.00;99041.06;5007993;28;20111;-59
2023/09/20 09:51:06;;;;;;;8.70;1.83;;;;;;;21.47;100.00;99028.66;5007353;28;20044;-61
2023/09/20 09:53:34;;;;;;;8.85;2.40;;;;;;;21.55;100.00;99009.09;5007533;28;20163;-58
2023/09/20 09:56:05;;;;;;;6.30;2.10;;;;;;;21.49;100.00;99027.28;5003325;28;20045;-57
2023/09/20 09:58:32;;;;;;;4.72;1.65;;;;;;;21.54;100.00;99018.28;5008294;28;20258;-60
2023/09/20 10:00:58;;;;;;;6.43;2.28;;;;;;;21.32;100.00;99029.72;5011336;28;20036;-59
2023/09/20 10:03:29;;;;;;;7.38;2.58;;;;;;;20.98;100.00;99028.13;5005915;28;20164;-62
2023/09/20 10:06:00;;;;;;;;;;;;;;;21.40;100.00;99022.84;5005709;28;20382;-60
2023/09/20 10:08:29;;;;;;;8.52;2.03;;;;;;;21.39;100.00;99016.69;5012439;28;19921;-58
2023/09/20 10:10:59;;;;;;;5.80;1.27;;;;;;;21.17;100.00;99013.81;5008516;28;20037;-49
2023/09/20 10:13:28;;;;;;;8.73;2.22;;;;;;;21.18;100.00;99012.72;5016073;28;20041;-61
2023/09/20 10:15:55;;;;;;;16.20;2.13;;;;;;;21.17;100.00;99024.59;5011158;28;20074;-56
2023/09/20 10:18:21;;;;;;;6.68;1.67;;;;;;;20.97;100.00;99018.47;5010578;28;20095;-59
2023/09/20 10:21:00;;;;;;;8.48;2.33;;;;;;;21.30;100.00;99004.97;5013401;28;20503;-59
2023/09/20 10:23:26;;;;;;;6.30;1.80;;;;;;;21.49;100.00;98999.50;5010555;28;20041;-56
2023/09/20 10:25:56;;;;;;;7.53;2.72;;;;;;;21.17;100.00;99011.94;5016777;28;20029;-56
2023/09/20 10:28:24;;;;;;;7.32;2.95;;;;;;;21.29;100.00;98985.28;5009965;28;20041;-60
2023/09/20 10:31:04;;;;;;;17.40;2.78;;;;;;;21.10;100.00;99006.91;5013111;28;20033;-59
2023/09/20 10:33:48;;;;;;;9.18;2.60;;;;;;;21.03;100.00;99005.69;5011967;28;20043;-57
2023/09/20 10:36:27;;;;;;;8.27;3.22;;;;;;;21.21;100.00;98991.38;5009689;28;20037;-61
2023/09/20 10:39:19;;;;;;;5.75;0.95;;;;;;;21.37;100.00;98988.38;5011674;28;20083;-62
2023/09/20 10:41:46;;;;;;;9.13;1.23;;;;;;;21.43;100.00;98982.63;5010901;28;20041;-62
2023/09/20 10:44:33;;;;;;;5.90;1.10;;;;;;;21.50;100.00;98968.75;5011427;28;20049;-62
2023/09/20 10:47:06;;;;;;;14.45;2.85;;;;;;;21.41;100.00;98976.75;5009253;28;20041;-57
2023/09/20 10:49:52;;;;;;;7.50;1.40;;;;;;;21.62;100.00;98963.66;5010420;28;20158;-61
2023/09/20 10:52:32;;;;;;;5.47;1.65;;;;;;;21.51;100.00;98965.75;5010983;28;20037;-56
2023/09/20 10:55:20;;;;;;;7.13;1.73;;;;;;;21.52;100.00;98972.75;5015745;28;20037;-63
2023/09/20 10:57:46;;;;;;;4.65;2.55;;;;;;;21.19;100.00;98971.97;5011361;28;20183;-61
2023/09/20 11:00:14;;;;;;;12.23;1.95;;;;;;;21.36;100.00;98968.72;5012202;28;20507;-62
2023/09/20 11:02:42;;;;;;;9.15;1.40;;;;;;;21.05;100.00;98980.06;5009705;28;20058;-62
2023/09/20 11:05:11;;;;;;;12.75;1.92;;;;;;;21.07;100.00;98969.78;5008612;28;20518;-63
2023/09/20 11:07:39;;;;;;;7.15;1.67;;;;;;;21.14;100.00;98964.00;5009987;28;20118;-62
2023/09/20 11:10:09;;;;;;;10.43;1.30;;;;;;;20.76;100.00;98996.44;5005730;28;20036;-52
2023/09/20 11:12:34;;;;;;;8.10;1.50;;;;;;;21.08;100.00;98994.84;5023042;28;20503;-61
2023/09/20 11:15:01;;;;;;;4.93;0.98;;;;;;;21.13;100.00;98990.16;5006410;28;20033;-58
2023/09/20 11:17:26;;;;;;;6.82;0.88;;;;;;;21.21;100.00;98988.66;5004483;28;20574;-61
2023/09/20 11:19:51;;;;;;;9.15;1.95;;;;;;;21.33;100.00;99005.16;5005911;28;20060;-60
2023/09/20 11:22:18;;;;;;;9.25;2.35;;;;;;;21.29;100.00;99003.34;5009600;28;20041;-62
2023/09/20 11:24:44;;;;;;;7.40;1.40;;;;;;;21.30;100.00;98996.88;5010567;28;20037;-60
2023/09/20 11:27:11;;;;;;;7.88;1.40;;;;;;;21.21;100.00;98994.06;5007220;28;20044;-55
2023/09/20 11:29:40;;;;;;;11.82;1.85;;;;;;;21.27;100.00;99002.84;5012096;28;20052;-56
2023/09/20 11:32:09;;;;;;;4.93;1.45;;;;;;;21.41;100.00;98992.13;5009991;28;20026;-54
2023/09/20 11:34:43;;;;;;;12.82;2.15;;;;;;;21.44;100.00;98991.53;5011433;28;20036;-48
2023/09/20 11:37:09;;;;;;;4.53;1.15;;;;;;;21.47;100.00;98996.31;5009208;28;21197;-58
2023/09/20 11:39:35;;;;;;;9.73;2.15;;;;;;;21.55;100.00;98982.13;5012263;28;20436;-58
2023/09/20 11:42:03;;;;;;;8.98;1.88;;;;;;;21.57;100.00;98971.84;5012355;28;20406;-57
2023/09/20 11:44:34;;;;;;;3.80;1.20;;;;;;;21.37;100.00;98975.69;5017093;28;20103;-52
2023/09/20 11:47:00;;;;;;;5.25;0.93;;;;;;;21.58;100.00;98986.91;5014987;28;20034;-57
2023/09/20 11:49:27;;;;;;;11.40;2.53;;;;;;;21.48;100.00;98982.53;5010954;28;20083;-58
2023/09/20 11:51:54;;;;;;;9.18;1.30;;;;;;;21.38;100.00;98977.34;5009617;28;20044;-56
2023/09/20 11:54:25;;;;;;;8.73;2.13;;;;;;;21.33;100.00;98972.03;5011636;28;20033;-48
2023/09/20 11:56:50;;;;;;;9.70;2.27;;;;;;;21.22;100.00;98974.09;5011567;28;20494;-57
2023/09/20 11:59:18;;;;;;;10.18;1.80;;;;;;;20.95;100.00;99001.78;5008834;28;20434;-61
2023/09/20 12:01:45;;;;;;;3.13;0.90;;;;;;;20.72;100.00;99005.41;5008345;28;20150;-51
2023/09/20 12:04:11;;;;;;;2.03;0.88;;;;;;;20.58;100.00;99011.53;5009590;28;20057;-60